EKAH/AAR METAR and TAF weather

Enter ICAO airport designator
Station Type Date Time Source
EKAH METAR 2018/10/22 16:20 UTC NOAA

EKAH 221620Z AUTO 26010KT 9999NDV BKN150/// 09/04 Q1024


Station Type Date Time Source
EKAH Decoded METAR 2018/10/22 16:20 UTC NOAA

Tirstrup, Denmark (EKAH) 56-18N 010-37E 25M
Oct 22, 2018 - 12:20 PM EDT / 2018.10.22 1620 UTC
Wind: from the W (260 degrees) at 12 MPH (10 KT):0
Sky conditions: mostly cloudy
Temperature: 48 F (9 C)
Dew Point: 39 F (4 C)
Relative Humidity: 70%
Pressure (altimeter): 30.24 in. Hg (1024 hPa)
ob: EKAH 221620Z AUTO 26010KT 9999NDV BKN150/// 09/04 Q1024
cycle: 16

Station Type Date Time Source
EKAH TAF 2018/10/22 12:09 UTC NOAA

TAF TAF EKAH 221100Z 2212/2312 29015KT 9999 SCT025
TEMPO 2212/2218 29020G30KT
BECMG 2218/2221 24008KT
BECMG 2222/2301 27018KT
TEMPO 2301/2312 28020G30KT 4000 RADZ BKN012


Example: see airport list